METAR Data
IDs: Format: Raw Decoded Include TAF

Data at: 2206 UTC 30 Jun 2022

METAR for:KFDW (Winnsboro/Fairfield, SC, US)
Text:KFDW 302155Z AUTO 00000KT 10SM BKN049 BKN055 OVC120 28/21 A3015 RMK AO1
Temperature: 28.0°C ( 82°F)
Dewpoint: 21.0°C ( 70°F) [RH = 66%]
Pressure (altimeter):30.15 inches Hg (1021.1 mb)
Winds:calm
Visibility:10 or more sm (16+ km)
Ceiling:4900 feet AGL
Clouds: broken clouds at 4900 feet AGL, broken clouds at 5500 feet AGL, overcast cloud deck at 12000 feet AGL
QC Flag:automated observation with no human augmentation

TAF for:KFDW (Winnsboro/Fairfield, SC, US)
Text:No data found